createdAt,value
2022-11-07T00:01:15.472Z,20.50
2022-11-07T00:03:42.334Z,21.80
2022-11-07T00:06:09.500Z,20.40
2022-11-07T00:08:36.398Z,19.80
2022-11-07T00:11:03.990Z,19.70
2022-11-07T00:13:30.849Z,20.77
2022-11-07T00:16:01.375Z,19.60
2022-11-07T00:18:28.446Z,19.73
2022-11-07T00:20:55.229Z,17.97
2022-11-07T00:23:22.404Z,19.70
2022-11-07T00:25:49.132Z,18.97
2022-11-07T00:28:16.166Z,19.67
2022-11-07T00:30:44.239Z,18.00
2022-11-07T00:33:11.201Z,18.87
2022-11-07T00:35:44.609Z,18.47
2022-11-07T00:38:12.925Z,18.80
2022-11-07T00:40:39.803Z,18.57
2022-11-07T00:43:06.692Z,18.13
2022-11-07T00:45:33.428Z,18.33
2022-11-07T00:48:00.280Z,17.57
2022-11-07T00:50:27.208Z,16.93
2022-11-07T00:52:53.984Z,18.17
2022-11-07T00:55:20.855Z,18.30
2022-11-07T00:57:47.706Z,16.37
2022-11-07T01:00:14.970Z,17.77
2022-11-07T01:02:42.246Z,17.77
2022-11-07T01:05:12.405Z,16.57
2022-11-07T01:07:39.982Z,16.37
2022-11-07T01:10:07.223Z,16.97
2022-11-07T01:12:35.007Z,15.73
2022-11-07T01:15:02.406Z,15.73
2022-11-07T01:17:29.198Z,15.93
2022-11-07T01:19:56.049Z,16.30
2022-11-07T01:22:23.002Z,15.53
2022-11-07T01:24:49.976Z,15.37
2022-11-07T01:27:16.770Z,15.20
2022-11-07T01:29:43.568Z,15.50
2022-11-07T01:32:10.329Z,17.90
2022-11-07T01:34:37.174Z,15.73
2022-11-07T01:37:03.946Z,15.10
2022-11-07T01:39:30.776Z,15.33
2022-11-07T01:41:57.724Z,14.47
2022-11-07T01:44:24.535Z,15.57
2022-11-07T01:46:52.742Z,16.10
2022-11-07T01:49:19.481Z,15.70
2022-11-07T01:51:50.640Z,16.13
2022-11-07T01:54:19.736Z,15.70
2022-11-07T01:56:47.193Z,15.23
2022-11-07T01:59:15.998Z,14.57
2022-11-07T02:01:43.530Z,16.73
2022-11-07T02:04:10.649Z,16.67
2022-11-07T02:06:48.299Z,14.73
2022-11-07T02:09:15.285Z,16.73
2022-11-07T02:11:42.085Z,15.40
2022-11-07T02:14:14.046Z,18.13
2022-11-07T02:16:40.947Z,15.63
2022-11-07T02:19:10.931Z,17.17
2022-11-07T02:21:40.872Z,15.87
2022-11-07T02:24:07.649Z,15.97
2022-11-07T02:26:35.498Z,16.73
2022-11-07T02:29:03.613Z,17.20
2022-11-07T02:31:30.406Z,16.87
2022-11-07T02:33:57.301Z,16.33
2022-11-07T02:36:24.561Z,18.00
2022-11-07T02:38:57.604Z,17.30
2022-11-07T02:41:30.633Z,16.97
2022-11-07T02:43:59.430Z,16.33
2022-11-07T02:46:27.760Z,18.07
2022-11-07T02:48:58.204Z,15.70
2022-11-07T02:51:25.199Z,16.80
2022-11-07T02:53:52.302Z,17.70
2022-11-07T02:56:19.240Z,17.13
2022-11-07T02:58:46.139Z,16.97
2022-11-07T03:01:13.122Z,17.70
2022-11-07T03:03:41.581Z,16.90
2022-11-07T03:06:09.451Z,17.67
2022-11-07T03:08:36.406Z,17.07
2022-11-07T03:11:03.191Z,16.13
2022-11-07T03:13:30.098Z,15.67
2022-11-07T03:15:57.123Z,16.33
2022-11-07T03:18:24.031Z,16.40
2022-11-07T03:20:50.961Z,16.97
2022-11-07T03:23:18.061Z,16.13
2022-11-07T03:25:45.071Z,16.33
2022-11-07T03:28:11.844Z,15.40
2022-11-07T03:30:38.610Z,15.43
2022-11-07T03:33:05.400Z,16.57
2022-11-07T03:35:32.208Z,17.40
2022-11-07T03:37:58.961Z,17.80
2022-11-07T03:40:25.798Z,17.47
2022-11-07T03:42:52.903Z,16.83
2022-11-07T03:45:19.712Z,15.27
2022-11-07T03:47:47.073Z,16.90
2022-11-07T03:50:18.721Z,15.40
2022-11-07T03:52:45.990Z,15.90
2022-11-07T03:55:16.159Z,15.00
2022-11-07T03:57:43.154Z,14.20
2022-11-07T04:00:11.180Z,15.97
2022-11-07T04:02:40.861Z,14.67
2022-11-07T04:05:08.048Z,15.17
2022-11-07T04:07:35.610Z,15.80
2022-11-07T04:10:02.376Z,15.53
2022-11-07T04:12:47.784Z,14.97
2022-11-07T04:15:33.277Z,15.23
2022-11-07T04:18:01.288Z,14.60
2022-11-07T04:20:28.499Z,14.13
2022-11-07T04:22:55.333Z,16.00
2022-11-07T04:25:42.089Z,15.93
2022-11-07T04:28:08.948Z,16.63
2022-11-07T04:30:35.704Z,17.10
2022-11-07T04:33:02.715Z,16.20
2022-11-07T04:35:31.480Z,15.83
2022-11-07T04:37:58.635Z,16.13
2022-11-07T04:40:25.587Z,16.63
2022-11-07T04:42:52.412Z,15.43
2022-11-07T04:45:19.267Z,14.70
2022-11-07T04:47:46.441Z,16.63
2022-11-07T04:50:14.807Z,16.10
2022-11-07T04:52:41.658Z,16.00
2022-11-07T04:55:10.334Z,16.03
2022-11-07T04:57:37.074Z,15.47
2022-11-07T05:00:04.899Z,15.70
2022-11-07T05:02:31.892Z,16.23
2022-11-07T05:04:58.732Z,16.30
2022-11-07T05:07:25.561Z,17.37
2022-11-07T05:09:52.516Z,15.20
2022-11-07T05:12:19.347Z,14.43
2022-11-07T05:14:46.142Z,13.90
2022-11-07T05:17:16.417Z,13.53
2022-11-07T05:19:43.507Z,11.07
2022-11-07T05:22:29.857Z,12.60
2022-11-07T05:24:56.630Z,12.73
2022-11-07T05:27:23.486Z,13.70
2022-11-07T05:29:50.559Z,13.30
2022-11-07T05:32:17.515Z,13.23
2022-11-07T05:34:44.278Z,12.23
2022-11-07T05:37:12.087Z,12.93
2022-11-07T05:39:38.901Z,11.27
2022-11-07T05:42:05.896Z,11.10
2022-11-07T05:44:32.848Z,11.07
2022-11-07T05:47:00.041Z,10.00
2022-11-07T05:49:27.036Z,11.67
2022-11-07T05:51:53.958Z,10.57
2022-11-07T05:54:20.822Z,9.33
2022-11-07T05:56:47.648Z,10.43
2022-11-07T05:59:15.293Z,8.97
2022-11-07T06:01:42.424Z,9.17
2022-11-07T06:04:09.346Z,8.17
2022-11-07T06:06:36.511Z,8.43
2022-11-07T06:09:03.772Z,8.60
2022-11-07T06:11:31.602Z,8.43
2022-11-07T06:13:58.674Z,8.77
2022-11-07T06:16:25.546Z,6.27
2022-11-07T06:18:52.374Z,7.33
2022-11-07T06:21:19.279Z,7.17
2022-11-07T06:23:46.038Z,8.27
2022-11-07T06:26:12.908Z,7.70
2022-11-07T06:28:39.738Z,6.90
2022-11-07T06:31:06.677Z,7.17
2022-11-07T06:33:33.558Z,7.90
2022-11-07T06:36:11.154Z,7.17
2022-11-07T06:38:38.624Z,6.37
2022-11-07T06:41:07.064Z,6.53
2022-11-07T06:43:34.390Z,6.00
2022-11-07T06:46:08.516Z,7.10
2022-11-07T06:48:35.514Z,6.60
2022-11-07T06:51:03.042Z,7.23
2022-11-07T06:53:31.539Z,7.67
2022-11-07T06:56:02.436Z,6.93
2022-11-07T06:58:29.325Z,7.17
2022-11-07T07:01:00.681Z,7.33
2022-11-07T07:03:27.530Z,7.63
2022-11-07T07:05:54.390Z,7.70
2022-11-07T07:08:21.344Z,6.70
2022-11-07T07:10:48.157Z,7.77
2022-11-07T07:13:15.357Z,7.70
2022-11-07T07:15:50.997Z,7.60
2022-11-07T07:18:19.143Z,7.30
2022-11-07T07:20:46.340Z,7.87
2022-11-07T07:23:13.246Z,6.83
2022-11-07T07:25:40.006Z,4.83
2022-11-07T07:28:06.921Z,7.43
2022-11-07T07:30:33.694Z,7.17
2022-11-07T07:33:00.596Z,7.33
2022-11-07T07:35:27.677Z,8.50
2022-11-07T07:37:54.565Z,8.70
2022-11-07T07:40:21.344Z,7.50
2022-11-07T07:42:48.365Z,7.80
2022-11-07T07:45:16.038Z,7.13
2022-11-07T07:47:42.871Z,8.40
2022-11-07T07:50:10.784Z,8.47
2022-11-07T07:52:37.812Z,8.10
2022-11-07T07:55:05.110Z,8.63
2022-11-07T07:57:32.043Z,7.53
2022-11-07T07:59:58.913Z,7.77
2022-11-07T08:02:26.449Z,8.03
2022-11-07T08:04:53.269Z,9.00
2022-11-07T08:07:20.051Z,8.23
2022-11-07T08:09:47.035Z,8.73
2022-11-07T08:12:13.869Z,7.57
2022-11-07T08:14:40.754Z,7.13
2022-11-07T08:17:07.657Z,7.27
2022-11-07T08:19:34.410Z,8.53
2022-11-07T08:22:01.358Z,7.23
2022-11-07T08:24:28.224Z,7.03
2022-11-07T08:26:55.025Z,7.57
2022-11-07T08:29:22.269Z,9.07
2022-11-07T08:31:50.827Z,8.37
2022-11-07T08:34:18.762Z,7.30
2022-11-07T08:36:45.616Z,9.23
2022-11-07T08:39:12.568Z,7.50
2022-11-07T08:41:39.818Z,7.70
2022-11-07T08:44:08.461Z,7.50
2022-11-07T08:46:35.441Z,7.30
2022-11-07T08:49:02.183Z,8.53
2022-11-07T08:51:29.010Z,7.73
2022-11-07T08:53:55.805Z,7.90
2022-11-07T08:56:22.683Z,8.17
2022-11-07T08:58:49.441Z,8.33
2022-11-07T09:01:16.405Z,8.30
2022-11-07T09:03:47.249Z,8.43
2022-11-07T09:06:17.786Z,9.10
2022-11-07T09:08:45.181Z,7.07
2022-11-07T09:11:12.435Z,7.67
2022-11-07T09:13:39.393Z,8.30
2022-11-07T09:16:06.332Z,8.83
2022-11-07T09:18:33.614Z,8.27
2022-11-07T09:21:00.428Z,8.83
2022-11-07T09:23:27.967Z,8.37
2022-11-07T09:25:54.823Z,7.87
2022-11-07T09:28:21.665Z,7.50
2022-11-07T09:30:53.406Z,8.60
2022-11-07T09:33:20.471Z,7.47
2022-11-07T09:35:48.352Z,8.33
2022-11-07T09:38:15.467Z,9.27
2022-11-07T09:41:01.207Z,8.73
2022-11-07T09:43:33.310Z,8.17
2022-11-07T09:46:03.198Z,8.03
2022-11-07T09:48:34.186Z,8.73
2022-11-07T09:51:01.154Z,9.70
2022-11-07T09:53:34.278Z,9.43
2022-11-07T09:56:01.929Z,8.93
2022-11-07T09:58:28.643Z,8.63
2022-11-07T10:00:57.431Z,9.27
2022-11-07T10:03:24.303Z,8.73
2022-11-07T10:06:03.266Z,8.83
2022-11-07T10:08:44.327Z,8.20
2022-11-07T10:11:17.686Z,8.10
2022-11-07T10:13:50.270Z,8.60
2022-11-07T10:16:23.489Z,7.30
2022-11-07T10:18:59.397Z,8.27
2022-11-07T10:21:39.599Z,7.57
2022-11-07T10:24:25.147Z,7.83
2022-11-07T10:26:52.037Z,7.70
2022-11-07T10:29:19.940Z,8.13
2022-11-07T10:31:49.306Z,9.30
2022-11-07T10:34:22.146Z,8.43
2022-11-07T10:36:48.934Z,8.00
2022-11-07T10:39:17.945Z,6.47
2022-11-07T10:41:48.397Z,7.83
2022-11-07T10:46:54.649Z,7.37
2022-11-07T10:49:32.069Z,7.27
2022-11-07T10:52:18.478Z,8.03
2022-11-07T10:54:45.423Z,7.63
2022-11-07T10:57:13.887Z,6.90
2022-11-07T10:59:41.538Z,6.80
2022-11-07T11:02:19.801Z,7.33
2022-11-07T11:04:57.304Z,6.73
2022-11-07T11:07:42.220Z,6.90
2022-11-07T11:10:19.350Z,6.47
2022-11-07T11:12:47.925Z,6.67
2022-11-07T11:15:19.482Z,7.07
2022-11-07T11:17:47.245Z,6.23
2022-11-07T11:20:29.274Z,6.13
2022-11-07T11:22:56.130Z,6.00
2022-11-07T11:25:24.124Z,6.07
2022-11-07T11:28:01.893Z,5.87
2022-11-07T11:30:30.056Z,5.73
2022-11-07T11:33:03.772Z,5.07
2022-11-07T11:35:41.743Z,6.83
2022-11-07T11:38:14.034Z,6.53
2022-11-07T11:40:42.397Z,6.57
2022-11-07T11:43:11.906Z,8.63
2022-11-07T11:45:44.679Z,6.63
2022-11-07T11:48:11.765Z,6.73
2022-11-07T11:50:41.518Z,7.00
2022-11-07T11:53:10.792Z,6.47
2022-11-07T11:55:41.940Z,6.23
2022-11-07T11:58:47.460Z,6.57
2022-11-07T12:01:23.143Z,6.30
2022-11-07T12:03:53.147Z,5.90
2022-11-07T12:06:46.359Z,5.70
2022-11-07T12:09:22.090Z,4.80
2022-11-07T12:11:51.994Z,5.33
2022-11-07T12:14:18.742Z,5.90
2022-11-07T12:16:51.478Z,7.23
2022-11-07T12:19:23.257Z,5.13
2022-11-07T12:21:57.165Z,5.60
2022-11-07T12:24:29.805Z,5.70
2022-11-07T12:27:06.878Z,4.70
2022-11-07T12:29:45.939Z,4.63
2022-11-07T12:32:25.341Z,5.00
2022-11-07T12:35:30.723Z,4.40
2022-11-07T12:38:06.239Z,5.30
2022-11-07T12:40:47.981Z,4.53
2022-11-07T12:43:15.060Z,6.03
2022-11-07T12:45:48.143Z,6.53
2022-11-07T12:48:33.449Z,5.13
2022-11-07T12:51:00.264Z,5.03
2022-11-07T12:53:37.183Z,4.80
2022-11-07T12:56:08.401Z,5.17
2022-11-07T12:58:35.777Z,5.77
2022-11-07T13:01:02.992Z,4.90
2022-11-07T13:03:32.721Z,6.40
2022-11-07T13:06:13.830Z,3.70
2022-11-07T13:08:49.995Z,4.20
2022-11-07T13:11:16.776Z,3.13
2022-11-07T13:13:55.474Z,3.77
2022-11-07T13:16:25.389Z,5.27
2022-11-07T13:18:52.356Z,5.67
2022-11-07T13:21:19.247Z,3.93
2022-11-07T13:23:47.746Z,4.63
2022-11-07T13:26:45.245Z,4.93
2022-11-07T13:29:02.476Z,6.00
2022-11-07T13:31:32.727Z,5.03
2022-11-07T13:34:17.970Z,6.10
2022-11-07T13:36:45.652Z,4.07
2022-11-07T13:39:13.375Z,3.87
2022-11-07T13:41:41.045Z,4.07
2022-11-07T13:44:20.533Z,4.03
2022-11-07T13:46:49.147Z,5.00
2022-11-07T13:49:19.340Z,4.60
2022-11-07T13:51:50.593Z,6.17
2022-11-07T13:54:28.779Z,4.30
2022-11-07T13:57:06.436Z,4.90
2022-11-07T13:59:48.250Z,5.90
2022-11-07T14:02:34.394Z,5.90
2022-11-07T14:05:21.285Z,6.03
2022-11-07T14:07:50.112Z,6.07
2022-11-07T14:10:23.554Z,5.80
2022-11-07T14:12:51.722Z,5.30
2022-11-07T14:15:18.622Z,5.57
2022-11-07T14:17:45.714Z,5.00
2022-11-07T14:20:14.074Z,5.70
2022-11-07T14:22:48.012Z,5.87
2022-11-07T14:25:20.733Z,4.20
2022-11-07T14:27:47.653Z,4.17
2022-11-07T14:30:21.309Z,3.60
2022-11-07T14:32:53.336Z,4.10
2022-11-07T14:35:30.617Z,4.87
2022-11-07T14:37:57.953Z,4.00
2022-11-07T14:40:25.572Z,3.47
2022-11-07T14:42:53.166Z,3.33
2022-11-07T14:45:40.659Z,2.90
2022-11-07T14:48:10.115Z,2.77
2022-11-07T14:50:38.500Z,3.30
2022-11-07T14:53:08.847Z,3.83
2022-11-07T14:55:55.032Z,2.87
2022-11-07T14:58:23.752Z,3.43
2022-11-07T15:00:53.418Z,3.40
2022-11-07T15:03:22.084Z,2.90
2022-11-07T15:05:49.275Z,3.23
2022-11-07T15:08:27.469Z,3.70
2022-11-07T15:11:01.750Z,3.30
2022-11-07T15:13:30.279Z,3.23
2022-11-07T15:16:17.655Z,3.03
2022-11-07T15:18:46.270Z,3.67
2022-11-07T15:21:28.777Z,3.60
2022-11-07T15:23:55.913Z,3.40
2022-11-07T15:26:24.073Z,3.50
2022-11-07T15:28:52.147Z,3.17
2022-11-07T15:31:26.483Z,2.97
2022-11-07T15:33:53.978Z,2.70
2022-11-07T15:36:20.965Z,3.57
2022-11-07T15:38:48.842Z,3.60
2022-11-07T15:41:15.949Z,3.17
2022-11-07T15:43:42.733Z,3.20
2022-11-07T15:46:26.636Z,3.10
2022-11-07T15:48:53.466Z,3.03
2022-11-07T15:51:20.275Z,3.10
2022-11-07T15:53:47.188Z,2.77
2022-11-07T15:56:18.854Z,3.10
2022-11-07T15:58:46.404Z,3.50
2022-11-07T16:01:14.463Z,3.10
2022-11-07T16:03:42.391Z,3.83
2022-11-07T16:06:36.124Z,4.30
2022-11-07T16:09:04.649Z,4.77
2022-11-07T16:11:31.760Z,4.17
2022-11-07T16:14:29.548Z,3.97
2022-11-07T16:16:49.223Z,4.03
2022-11-07T16:19:21.111Z,3.77
2022-11-07T16:21:48.690Z,5.53
2022-11-07T16:24:16.864Z,5.40
2022-11-07T16:26:45.762Z,7.17
2022-11-07T16:29:14.479Z,5.00
2022-11-07T16:31:42.787Z,5.90
2022-11-07T16:34:11.070Z,7.17
2022-11-07T16:36:39.906Z,6.83
2022-11-07T16:39:08.225Z,6.03
2022-11-07T16:41:35.767Z,6.07
2022-11-07T16:44:02.816Z,6.63
2022-11-07T16:46:35.541Z,8.33
2022-11-07T16:49:13.945Z,9.20
2022-11-07T16:51:45.285Z,8.43
2022-11-07T16:54:12.378Z,19.30
2022-11-07T16:56:40.396Z,45.50
2022-11-07T16:59:08.181Z,24.87
2022-11-07T17:01:36.581Z,13.87
2022-11-07T17:04:04.087Z,11.33
2022-11-07T17:06:32.842Z,11.33
2022-11-07T17:09:07.466Z,8.83
2022-11-07T17:11:39.325Z,17.40
2022-11-07T17:14:06.604Z,10.83
2022-11-07T17:16:37.141Z,11.80
2022-11-07T17:19:05.339Z,11.50
2022-11-07T17:21:34.296Z,11.57
2022-11-07T17:24:01.800Z,12.40
2022-11-07T17:26:34.955Z,11.73
2022-11-07T17:29:03.300Z,10.67
2022-11-07T17:31:30.241Z,8.50
2022-11-07T17:33:57.089Z,8.00
2022-11-07T17:36:26.992Z,8.37
2022-11-07T17:38:56.713Z,9.63
2022-11-07T17:41:28.301Z,9.87
2022-11-07T17:43:56.031Z,10.10
2022-11-07T17:46:28.729Z,10.33
2022-11-07T17:48:56.743Z,10.67
2022-11-07T17:51:26.798Z,10.17
2022-11-07T17:53:57.243Z,10.33
2022-11-07T17:56:25.336Z,10.60
2022-11-07T17:58:56.305Z,10.33
2022-11-07T18:01:25.850Z,10.57
2022-11-07T18:03:53.237Z,10.43
2022-11-07T18:06:23.695Z,9.47
2022-11-07T18:08:52.493Z,11.57
2022-11-07T18:11:20.460Z,11.17
2022-11-07T18:13:49.821Z,10.77
2022-11-07T18:16:19.090Z,11.77
2022-11-07T18:18:46.296Z,11.13
2022-11-07T18:21:13.726Z,11.07
2022-11-07T18:23:41.695Z,11.17
2022-11-07T18:26:10.196Z,12.70
2022-11-07T18:28:37.901Z,13.00
2022-11-07T18:31:09.196Z,13.03
2022-11-07T18:33:36.239Z,10.90
2022-11-07T18:36:04.768Z,12.87
2022-11-07T18:38:31.642Z,12.73
2022-11-07T18:41:02.631Z,14.57
2022-11-07T18:43:30.000Z,14.03
2022-11-07T18:45:57.104Z,14.07
2022-11-07T18:48:24.474Z,15.07
2022-11-07T18:50:51.781Z,14.73
2022-11-07T18:53:18.802Z,14.43
2022-11-07T18:55:45.581Z,14.33
2022-11-07T18:58:12.406Z,13.87
2022-11-07T19:00:39.424Z,14.53
2022-11-07T19:03:06.541Z,15.87
2022-11-07T19:05:37.235Z,13.57
2022-11-07T19:08:06.980Z,14.47
2022-11-07T19:10:34.118Z,14.90
2022-11-07T19:13:05.444Z,14.47
2022-11-07T19:15:38.011Z,15.10
2022-11-07T19:18:04.816Z,15.20
2022-11-07T19:20:31.649Z,14.53
2022-11-07T19:22:58.511Z,14.63
2022-11-07T19:25:25.317Z,15.00
2022-11-07T19:27:52.186Z,13.77
2022-11-07T19:30:19.364Z,12.63
2022-11-07T19:32:48.178Z,13.23
2022-11-07T19:35:16.346Z,13.37
2022-11-07T19:37:43.571Z,13.37
2022-11-07T19:40:10.573Z,12.80
2022-11-07T19:42:37.518Z,15.63
2022-11-07T19:45:04.502Z,15.30
2022-11-07T19:47:31.428Z,12.33
2022-11-07T19:49:58.349Z,15.37
2022-11-07T19:52:25.152Z,16.20
2022-11-07T19:54:52.133Z,15.00
2022-11-07T19:57:18.962Z,13.57
2022-11-07T19:59:45.800Z,13.30
2022-11-07T20:05:00.240Z,13.57
2022-11-07T20:07:27.049Z,14.20
2022-11-07T20:09:55.068Z,12.93
2022-11-07T20:12:21.947Z,14.60
2022-11-07T20:14:48.737Z,12.87
2022-11-07T20:17:15.535Z,14.13
2022-11-07T20:19:42.423Z,14.43
2022-11-07T20:22:12.294Z,21.73
2022-11-07T20:24:39.230Z,16.90
2022-11-07T20:27:05.992Z,22.17
2022-11-07T20:29:32.864Z,18.27
2022-11-07T20:31:59.644Z,14.80
2022-11-07T20:34:26.453Z,14.07
2022-11-07T20:36:54.282Z,12.90
2022-11-07T20:39:21.363Z,14.03
2022-11-07T20:41:48.158Z,15.20
2022-11-07T20:44:15.503Z,13.10
2022-11-07T20:46:43.904Z,15.87
2022-11-07T20:49:12.182Z,23.97
2022-11-07T20:51:39.218Z,13.53
2022-11-07T20:54:06.265Z,11.93
2022-11-07T20:56:33.961Z,12.50
2022-11-07T20:59:00.890Z,12.53
2022-11-07T21:01:30.192Z,12.77
2022-11-07T21:03:57.094Z,11.77
2022-11-07T21:06:23.962Z,13.80
2022-11-07T21:08:50.814Z,12.53
2022-11-07T21:11:17.872Z,12.33
2022-11-07T21:13:49.738Z,12.30
2022-11-07T21:16:19.905Z,12.73
2022-11-07T21:18:47.025Z,12.83
2022-11-07T21:21:24.407Z,12.77
2022-11-07T21:23:52.108Z,11.93
2022-11-07T21:26:26.874Z,12.83
2022-11-07T21:28:54.150Z,12.57
2022-11-07T21:31:24.076Z,13.40
2022-11-07T21:33:51.553Z,13.40
2022-11-07T21:36:19.387Z,14.63
2022-11-07T21:38:46.938Z,14.43
2022-11-07T21:41:14.743Z,14.03
2022-11-07T21:43:41.483Z,14.27
2022-11-07T21:46:09.585Z,12.73
2022-11-07T21:48:36.851Z,15.13
2022-11-07T21:51:07.438Z,12.03
2022-11-07T21:53:37.828Z,15.53
2022-11-07T21:56:05.602Z,12.43
2022-11-07T21:58:32.521Z,11.33
2022-11-07T22:01:03.271Z,12.37
2022-11-07T22:03:51.489Z,13.40
2022-11-07T22:06:19.736Z,12.40
2022-11-07T22:08:47.944Z,12.97
2022-11-07T22:11:15.411Z,13.40
2022-11-07T22:13:42.286Z,12.33
2022-11-07T22:16:11.760Z,13.00
2022-11-07T22:18:38.729Z,11.97
2022-11-07T22:21:06.659Z,13.07
2022-11-07T22:23:34.436Z,16.27
2022-11-07T22:26:14.674Z,13.87
2022-11-07T22:28:45.862Z,12.27
2022-11-07T22:31:15.035Z,11.93
2022-11-07T22:33:42.005Z,12.17
2022-11-07T22:36:10.079Z,12.33
2022-11-07T22:38:37.131Z,11.87
2022-11-07T22:41:13.970Z,12.43
2022-11-07T22:43:41.217Z,12.60
2022-11-07T22:46:09.321Z,13.10
2022-11-07T22:48:36.437Z,12.00
2022-11-07T22:51:03.252Z,12.27
2022-11-07T22:53:30.169Z,12.53
2022-11-07T22:55:56.957Z,12.33
2022-11-07T22:58:23.784Z,12.47
2022-11-07T23:00:50.704Z,12.47
2022-11-07T23:03:17.606Z,13.03
2022-11-07T23:05:44.546Z,12.70
2022-11-07T23:08:11.377Z,11.67
2022-11-07T23:10:38.287Z,11.67
2022-11-07T23:13:05.227Z,12.63
2022-11-07T23:15:32.505Z,13.97
2022-11-07T23:17:59.273Z,11.77
2022-11-07T23:20:44.750Z,11.70
2022-11-07T23:23:11.628Z,12.03
2022-11-07T23:25:38.358Z,12.57
2022-11-07T23:28:07.663Z,12.13
2022-11-07T23:30:37.609Z,11.77
2022-11-07T23:33:04.669Z,12.20
2022-11-07T23:35:32.298Z,12.10
2022-11-07T23:37:59.526Z,12.47
2022-11-07T23:40:26.498Z,11.50
2022-11-07T23:42:53.248Z,11.33
2022-11-07T23:45:38.441Z,12.17
2022-11-07T23:48:24.062Z,11.83
2022-11-07T23:51:02.898Z,11.30
2022-11-07T23:53:55.137Z,11.77
2022-11-07T23:56:23.491Z,11.53
2022-11-07T23:59:08.928Z,10.73
